sensor_id;sensor_type;location;lat;lon;timestamp;pressure;altitude;pressure_sealevel;temperature;humidity
31005;BME280;17676;52.254;4.490;2023-10-13T00:01:23;98518.06;;;18.18;53.87
31005;BME280;17676;52.254;4.490;2023-10-13T00:03:50;98530.63;;;18.19;54.06
31005;BME280;17676;52.254;4.490;2023-10-13T00:06:17;98509.34;;;18.16;53.61
31005;BME280;17676;52.254;4.490;2023-10-13T00:08:44;98500.66;;;18.14;53.19
31005;BME280;17676;52.254;4.490;2023-10-13T00:11:13;98504.16;;;18.06;53.19
31005;BME280;17676;52.254;4.490;2023-10-13T00:13:39;98495.44;;;18.04;52.65
31005;BME280;17676;52.254;4.490;2023-10-13T00:16:18;98474.66;;;18.03;52.08
31005;BME280;17676;52.254;4.490;2023-10-13T00:18:50;98453.59;;;18.12;51.57
31005;BME280;17676;52.254;4.490;2023-10-13T00:21:19;98443.44;;;18.04;51.43
31005;BME280;17676;52.254;4.490;2023-10-13T00:23:58;98438.81;;;18.13;51.00
31005;BME280;17676;52.254;4.490;2023-10-13T00:26:28;98445.28;;;18.17;50.92
31005;BME280;17676;52.254;4.490;2023-10-13T00:28:58;98449.47;;;18.14;50.92
31005;BME280;17676;52.254;4.490;2023-10-13T00:31:27;98436.56;;;18.15;50.74
31005;BME280;17676;52.254;4.490;2023-10-13T00:34:02;98423.63;;;18.07;50.74
31005;BME280;17676;52.254;4.490;2023-10-13T00:36:57;98421.66;;;17.99;51.09
31005;BME280;17676;52.254;4.490;2023-10-13T00:39:43;98411.84;;;17.98;51.04
31005;BME280;17676;52.254;4.490;2023-10-13T00:42:14;98410.88;;;17.94;51.03
31005;BME280;17676;52.254;4.490;2023-10-13T00:44:45;98397.34;;;17.97;50.36
31005;BME280;17676;52.254;4.490;2023-10-13T00:47:15;98395.59;;;18.01;50.42
31005;BME280;17676;52.254;4.490;2023-10-13T00:49:48;98373.03;;;17.96;50.13
31005;BME280;17676;52.254;4.490;2023-10-13T00:52:15;98363.06;;;18.00;49.86
31005;BME280;17676;52.254;4.490;2023-10-13T00:54:44;98348.59;;;17.99;49.86
31005;BME280;17676;52.254;4.490;2023-10-13T00:57:14;98327.00;;;17.98;49.86
31005;BME280;17676;52.254;4.490;2023-10-13T00:59:53;98321.69;;;18.01;50.25
31005;BME280;17676;52.254;4.490;2023-10-13T01:02:20;98326.69;;;17.99;50.15
31005;BME280;17676;52.254;4.490;2023-10-13T01:05:04;98328.28;;;17.92;50.33
31005;BME280;17676;52.254;4.490;2023-10-13T01:07:30;98322.47;;;17.93;49.98
31005;BME280;17676;52.254;4.490;2023-10-13T01:09:55;98339.88;;;17.89;49.90
31005;BME280;17676;52.254;4.490;2023-10-13T01:12:21;98315.72;;;17.91;49.26
31005;BME280;17676;52.254;4.490;2023-10-13T01:14:50;98320.19;;;17.87;49.19
31005;BME280;17676;52.254;4.490;2023-10-13T01:17:15;98308.16;;;17.96;48.78
31005;BME280;17676;52.254;4.490;2023-10-13T01:19:41;98308.78;;;17.93;49.17
31005;BME280;17676;52.254;4.490;2023-10-13T01:22:11;98298.50;;;17.90;48.72
31005;BME280;17676;52.254;4.490;2023-10-13T01:24:37;98285.13;;;17.89;48.48
31005;BME280;17676;52.254;4.490;2023-10-13T01:27:04;98289.00;;;17.88;48.47
31005;BME280;17676;52.254;4.490;2023-10-13T01:29:50;98263.69;;;17.74;48.29
31005;BME280;17676;52.254;4.490;2023-10-13T01:32:22;98255.81;;;17.81;48.09
31005;BME280;17676;52.254;4.490;2023-10-13T01:34:48;98247.09;;;17.79;47.79
31005;BME280;17676;52.254;4.490;2023-10-13T01:37:15;98219.75;;;17.79;47.60
31005;BME280;17676;52.254;4.490;2023-10-13T01:39:44;98185.16;;;17.83;47.29
31005;BME280;17676;52.254;4.490;2023-10-13T01:42:12;98163.59;;;17.73;47.06
31005;BME280;17676;52.254;4.490;2023-10-13T01:44:45;98655.94;;;17.78;46.80
31005;BME280;17676;52.254;4.490;2023-10-13T01:47:10;98655.31;;;17.81;46.85
31005;BME280;17676;52.254;4.490;2023-10-13T01:49:38;98612.03;;;17.83;46.50
31005;BME280;17676;52.254;4.490;2023-10-13T01:52:12;98577.88;;;17.80;46.43
31005;BME280;17676;52.254;4.490;2023-10-13T01:54:44;98537.66;;;17.81;46.52
31005;BME280;17676;52.254;4.490;2023-10-13T01:57:10;98535.41;;;17.83;46.61
31005;BME280;17676;52.254;4.490;2023-10-13T01:59:42;98462.16;;;17.80;46.26
31005;BME280;17676;52.254;4.490;2023-10-13T02:02:12;98420.00;;;17.81;46.19
31005;BME280;17676;52.254;4.490;2023-10-13T02:04:40;98279.47;;;17.77;46.36
31005;BME280;17676;52.254;4.490;2023-10-13T02:07:21;98223.94;;;17.76;46.08
31005;BME280;17676;52.254;4.490;2023-10-13T02:09:52;98318.75;;;17.81;45.89
31005;BME280;17676;52.254;4.490;2023-10-13T02:12:20;98557.28;;;17.83;45.82
31005;BME280;17676;52.254;4.490;2023-10-13T02:14:52;98575.72;;;17.69;45.80
31005;BME280;17676;52.254;4.490;2023-10-13T02:17:18;98598.28;;;17.74;45.63
31005;BME280;17676;52.254;4.490;2023-10-13T02:19:46;98599.59;;;17.77;45.54
31005;BME280;17676;52.254;4.490;2023-10-13T02:22:12;98611.75;;;17.71;45.74
31005;BME280;17676;52.254;4.490;2023-10-13T02:24:53;98600.06;;;17.79;45.52
31005;BME280;17676;52.254;4.490;2023-10-13T02:27:19;98598.47;;;17.78;45.55
31005;BME280;17676;52.254;4.490;2023-10-13T02:29:49;98555.59;;;17.73;45.50
31005;BME280;17676;52.254;4.490;2023-10-13T02:32:15;98566.75;;;17.77;45.47
31005;BME280;17676;52.254;4.490;2023-10-13T02:34:49;98546.63;;;17.73;45.58
31005;BME280;17676;52.254;4.490;2023-10-13T02:37:15;98540.53;;;17.76;45.59
31005;BME280;17676;52.254;4.490;2023-10-13T02:39:44;98536.66;;;17.77;45.51
31005;BME280;17676;52.254;4.490;2023-10-13T02:42:10;98527.69;;;17.63;45.65
31005;BME280;17676;52.254;4.490;2023-10-13T02:44:49;98515.00;;;17.67;45.51
31005;BME280;17676;52.254;4.490;2023-10-13T02:47:14;98464.16;;;17.66;45.52
31005;BME280;17676;52.254;4.490;2023-10-13T02:49:40;98476.84;;;17.62;45.53
31005;BME280;17676;52.254;4.490;2023-10-13T02:52:09;98481.19;;;17.63;45.53
31005;BME280;17676;52.254;4.490;2023-10-13T02:54:35;98458.31;;;17.59;45.33
31005;BME280;17676;52.254;4.490;2023-10-13T02:57:16;98428.06;;;17.55;45.25
31005;BME280;17676;52.254;4.490;2023-10-13T02:59:43;98383.84;;;17.62;47.00
31005;BME280;17676;52.254;4.490;2023-10-13T03:02:13;98372.28;;;17.65;46.95
31005;BME280;17676;52.254;4.490;2023-10-13T03:04:54;98331.88;;;17.62;46.94
31005;BME280;17676;52.254;4.490;2023-10-13T03:07:35;98243.84;;;17.60;46.91
31005;BME280;17676;52.254;4.490;2023-10-13T03:10:03;98230.31;;;17.55;47.11
31005;BME280;17676;52.254;4.490;2023-10-13T03:12:36;97831.00;;;17.63;47.01
31005;BME280;17676;52.254;4.490;2023-10-13T03:15:03;97740.59;;;17.60;46.93
31005;BME280;17676;52.254;4.490;2023-10-13T03:17:38;97703.25;;;17.64;46.99
31005;BME280;17676;52.254;4.490;2023-10-13T03:20:18;97658.41;;;17.56;47.10
31005;BME280;17676;52.254;4.490;2023-10-13T03:22:49;97605.47;;;17.61;47.07
31005;BME280;17676;52.254;4.490;2023-10-13T03:25:18;97564.50;;;17.52;47.11
31005;BME280;17676;52.254;4.490;2023-10-13T03:27:55;97541.91;;;17.35;47.12
31005;BME280;17676;52.254;4.490;2023-10-13T03:30:20;97515.34;;;17.44;46.79
31005;BME280;17676;52.254;4.490;2023-10-13T03:32:47;97448.59;;;17.45;46.62
31005;BME280;17676;52.254;4.490;2023-10-13T03:35:20;97443.00;;;17.41;46.48
31005;BME280;17676;52.254;4.490;2023-10-13T03:38:03;97430.25;;;17.45;46.25
31005;BME280;17676;52.254;4.490;2023-10-13T03:40:29;97453.13;;;17.41;47.31
31005;BME280;17676;52.254;4.490;2023-10-13T03:42:57;97627.47;;;17.44;47.08
31005;BME280;17676;52.254;4.490;2023-10-13T03:45:40;98447.78;;;17.30;47.28
31005;BME280;17676;52.254;4.490;2023-10-13T03:48:15;98428.44;;;17.40;46.97
31005;BME280;17676;52.254;4.490;2023-10-13T03:50:50;98416.34;;;17.41;46.97
31005;BME280;17676;52.254;4.490;2023-10-13T03:53:32;98387.81;;;17.34;46.94
31005;BME280;17676;52.254;4.490;2023-10-13T03:56:02;98331.38;;;17.38;46.72
31005;BME280;17676;52.254;4.490;2023-10-13T03:58:38;98263.56;;;17.18;46.81
31005;BME280;17676;52.254;4.490;2023-10-13T04:01:13;98189.63;;;17.23;46.49
31005;BME280;17676;52.254;4.490;2023-10-13T04:03:43;98146.03;;;17.09;46.55
31005;BME280;17676;52.254;4.490;2023-10-13T04:06:44;98205.19;;;17.14;46.30
31005;BME280;17676;52.254;4.490;2023-10-13T04:09:21;98227.56;;;17.16;46.22
31005;BME280;17676;52.254;4.490;2023-10-13T04:12:02;98228.34;;;17.16;45.98
31005;BME280;17676;52.254;4.490;2023-10-13T04:14:34;98233.16;;;17.11;46.01
31005;BME280;17676;52.254;4.490;2023-10-13T04:17:12;98231.75;;;17.13;45.86
31005;BME280;17676;52.254;4.490;2023-10-13T04:19:41;98218.59;;;17.24;45.70
31005;BME280;17676;52.254;4.490;2023-10-13T04:22:26;98215.34;;;17.22;45.76
31005;BME280;17676;52.254;4.490;2023-10-13T04:25:27;98176.47;;;17.25;45.68
31005;BME280;17676;52.254;4.490;2023-10-13T04:28:15;98138.53;;;17.32;45.60
31005;BME280;17676;52.254;4.490;2023-10-13T04:30:47;98075.16;;;17.30;45.51
31005;BME280;17676;52.254;4.490;2023-10-13T04:33:25;98131.94;;;17.33;45.47
31005;BME280;17676;52.254;4.490;2023-10-13T04:36:06;98109.44;;;17.36;45.36
31005;BME280;17676;52.254;4.490;2023-10-13T04:38:55;98096.41;;;17.33;45.18
31005;BME280;17676;52.254;4.490;2023-10-13T04:41:31;98091.28;;;17.40;44.92
31005;BME280;17676;52.254;4.490;2023-10-13T04:44:00;98103.53;;;17.51;44.79
31005;BME280;17676;52.254;4.490;2023-10-13T04:46:54;98151.00;;;17.55;44.60
31005;BME280;17676;52.254;4.490;2023-10-13T04:49:35;98149.06;;;17.55;44.44
31005;BME280;17676;52.254;4.490;2023-10-13T04:52:15;98119.63;;;17.61;44.21
31005;BME280;17676;52.254;4.490;2023-10-13T04:54:59;98104.69;;;17.75;44.00
31005;BME280;17676;52.254;4.490;2023-10-13T04:57:35;98080.69;;;17.81;43.93
31005;BME280;17676;52.254;4.490;2023-10-13T05:00:12;98061.56;;;17.81;43.96
31005;BME280;17676;52.254;4.490;2023-10-13T05:02:46;98052.69;;;17.84;43.83
31005;BME280;17676;52.254;4.490;2023-10-13T05:05:20;98080.34;;;17.91;44.07
31005;BME280;17676;52.254;4.490;2023-10-13T05:08:04;98058.00;;;17.80;44.23
31005;BME280;17676;52.254;4.490;2023-10-13T05:10:49;98057.50;;;17.87;44.33
31005;BME280;17676;52.254;4.490;2023-10-13T05:13:33;98039.66;;;17.81;44.50
31005;BME280;17676;52.254;4.490;2023-10-13T05:16:17;97994.75;;;17.82;44.63
31005;BME280;17676;52.254;4.490;2023-10-13T05:19:01;97999.59;;;17.85;44.78
31005;BME280;17676;52.254;4.490;2023-10-13T05:21:45;98016.00;;;17.85;45.06
31005;BME280;17676;52.254;4.490;2023-10-13T05:24:29;98011.16;;;17.82;45.25
31005;BME280;17676;52.254;4.490;2023-10-13T05:27:13;98013.75;;;17.78;45.38
31005;BME280;17676;52.254;4.490;2023-10-13T05:29:57;98024.06;;;17.73;45.45
31005;BME280;17676;52.254;4.490;2023-10-13T05:32:42;98014.56;;;17.70;46.77
31005;BME280;17676;52.254;4.490;2023-10-13T05:35:26;98025.03;;;17.60;47.13
31005;BME280;17676;52.254;4.490;2023-10-13T05:38:10;98027.59;;;17.56;47.43
31005;BME280;17676;52.254;4.490;2023-10-13T05:41:02;98017.16;;;17.50;47.77
31005;BME280;17676;52.254;4.490;2023-10-13T05:43:46;98033.72;;;17.45;48.36
31005;BME280;17676;52.254;4.490;2023-10-13T05:46:38;98043.69;;;17.41;48.88
31005;BME280;17676;52.254;4.490;2023-10-13T05:49:05;98058.47;;;17.40;49.30
31005;BME280;17676;52.254;4.490;2023-10-13T05:51:31;98048.03;;;17.50;49.35
31005;BME280;17676;52.254;4.490;2023-10-13T05:54:01;98046.56;;;17.36;50.30
31005;BME280;17676;52.254;4.490;2023-10-13T05:56:47;98062.00;;;17.32;50.95
31005;BME280;17676;52.254;4.490;2023-10-13T05:59:33;98079.19;;;17.32;51.56
31005;BME280;17676;52.254;4.490;2023-10-13T06:02:19;98087.88;;;17.34;52.18
31005;BME280;17676;52.254;4.490;2023-10-13T06:05:05;98104.25;;;17.26;53.03
31005;BME280;17676;52.254;4.490;2023-10-13T06:07:50;98116.66;;;17.32;53.71
31005;BME280;17676;52.254;4.490;2023-10-13T06:10:34;98121.16;;;17.28;54.77
31005;BME280;17676;52.254;4.490;2023-10-13T06:13:19;98143.03;;;17.28;55.72
31005;BME280;17676;52.254;4.490;2023-10-13T06:16:13;98161.84;;;17.29;56.75
31005;BME280;17676;52.254;4.490;2023-10-13T06:18:58;98188.22;;;17.34;57.69
31005;BME280;17676;52.254;4.490;2023-10-13T06:21:44;98204.63;;;17.34;58.74
31005;BME280;17676;52.254;4.490;2023-10-13T06:24:29;98237.22;;;17.44;59.46
31005;BME280;17676;52.254;4.490;2023-10-13T06:27:14;98278.44;;;17.34;60.67
31005;BME280;17676;52.254;4.490;2023-10-13T06:29:59;98316.59;;;17.39;61.79
31005;BME280;17676;52.254;4.490;2023-10-13T06:32:30;98336.75;;;17.43;62.95
31005;BME280;17676;52.254;4.490;2023-10-13T06:34:57;98379.88;;;17.46;63.86
31005;BME280;17676;52.254;4.490;2023-10-13T06:37:44;98404.50;;;17.46;65.26
31005;BME280;17676;52.254;4.490;2023-10-13T06:40:12;98410.47;;;17.48;66.13
31005;BME280;17676;52.254;4.490;2023-10-13T06:42:47;98415.50;;;17.54;66.44
31005;BME280;17676;52.254;4.490;2023-10-13T06:45:15;98432.09;;;17.58;67.01
31005;BME280;17676;52.254;4.490;2023-10-13T06:47:42;98446.28;;;17.60;67.35
31005;BME280;17676;52.254;4.490;2023-10-13T06:50:12;98447.13;;;17.69;66.71
31005;BME280;17676;52.254;4.490;2023-10-13T06:52:47;98458.22;;;17.64;67.27
31005;BME280;17676;52.254;4.490;2023-10-13T06:55:13;98477.66;;;17.62;66.66
31005;BME280;17676;52.254;4.490;2023-10-13T06:57:45;98464.28;;;17.61;65.19
31005;BME280;17676;52.254;4.490;2023-10-13T07:00:12;98466.75;;;17.71;63.88
31005;BME280;17676;52.254;4.490;2023-10-13T07:02:59;98449.66;;;17.65;62.60
31005;BME280;17676;52.254;4.490;2023-10-13T07:05:40;98449.25;;;17.72;60.94
31005;BME280;17676;52.254;4.490;2023-10-13T07:08:10;98418.03;;;17.81;59.81
31005;BME280;17676;52.254;4.490;2023-10-13T07:10:47;98382.66;;;17.85;58.55
31005;BME280;17676;52.254;4.490;2023-10-13T07:13:34;98379.63;;;17.95;57.73
31005;BME280;17676;52.254;4.490;2023-10-13T07:16:12;98377.56;;;17.92;56.95
31005;BME280;17676;52.254;4.490;2023-10-13T07:18:38;98362.44;;;18.03;56.13
31005;BME280;17676;52.254;4.490;2023-10-13T07:21:17;98334.44;;;18.06;55.40
31005;BME280;17676;52.254;4.490;2023-10-13T07:23:50;98336.69;;;18.12;54.99
31005;BME280;17676;52.254;4.490;2023-10-13T07:26:27;98317.06;;;18.19;54.50
31005;BME280;17676;52.254;4.490;2023-10-13T07:28:54;98314.16;;;18.24;54.51
31005;BME280;17676;52.254;4.490;2023-10-13T07:31:19;98303.56;;;18.31;54.08
31005;BME280;17676;52.254;4.490;2023-10-13T07:33:49;98298.09;;;18.31;54.15
31005;BME280;17676;52.254;4.490;2023-10-13T07:36:15;98297.97;;;18.44;54.48
31005;BME280;17676;52.254;4.490;2023-10-13T07:38:43;98300.84;;;18.48;54.94
31005;BME280;17676;52.254;4.490;2023-10-13T07:41:14;98299.09;;;18.52;55.24
31005;BME280;17676;52.254;4.490;2023-10-13T07:43:47;98302.78;;;18.56;56.06
31005;BME280;17676;52.254;4.490;2023-10-13T07:46:14;98316.00;;;18.62;56.75
31005;BME280;17676;52.254;4.490;2023-10-13T07:48:40;98327.94;;;18.66;58.16
31005;BME280;17676;52.254;4.490;2023-10-13T07:51:09;98345.69;;;18.69;59.83
31005;BME280;17676;52.254;4.490;2023-10-13T07:53:45;98360.38;;;18.73;61.53
31005;BME280;17676;52.254;4.490;2023-10-13T07:56:14;98380.03;;;18.75;64.79
31005;BME280;17676;52.254;4.490;2023-10-13T07:58:44;98388.75;;;18.77;68.20
31005;BME280;17676;52.254;4.490;2023-10-13T08:01:18;98423.56;;;18.85;74.09
31005;BME280;17676;52.254;4.490;2023-10-13T08:03:44;98463.72;;;18.81;83.35
31005;BME280;17676;52.254;4.490;2023-10-13T08:06:17;98502.91;;;18.90;94.38
31005;BME280;17676;52.254;4.490;2023-10-13T08:08:43;98550.94;;;18.96;100.00
31005;BME280;17676;52.254;4.490;2023-10-13T08:11:11;98604.19;;;18.95;100.00
31005;BME280;17676;52.254;4.490;2023-10-13T08:13:43;98652.28;;;19.01;100.00
31005;BME280;17676;52.254;4.490;2023-10-13T08:16:13;98707.13;;;19.01;100.00
31005;BME280;17676;52.254;4.490;2023-10-13T08:18:51;98759.63;;;18.94;100.00
31005;BME280;17676;52.254;4.490;2023-10-13T08:21:17;98842.47;;;19.05;100.00
31005;BME280;17676;52.254;4.490;2023-10-13T08:23:49;98940.94;;;19.15;100.00
31005;BME280;17676;52.254;4.490;2023-10-13T08:26:25;99083.44;;;19.20;100.00
31005;BME280;17676;52.254;4.490;2023-10-13T08:29:09;99198.03;;;19.23;100.00
31005;BME280;17676;52.254;4.490;2023-10-13T08:31:58;99279.16;;;19.29;100.00
31005;BME280;17676;52.254;4.490;2023-10-13T08:34:30;99353.22;;;19.29;100.00
31005;BME280;17676;52.254;4.490;2023-10-13T08:37:05;99433.63;;;19.30;100.00
31005;BME280;17676;52.254;4.490;2023-10-13T08:39:56;99259.34;;;19.32;100.00
31005;BME280;17676;52.254;4.490;2023-10-13T08:42:34;99262.50;;;19.26;100.00
31005;BME280;17676;52.254;4.490;2023-10-13T08:45:14;99300.50;;;19.32;100.00
31005;BME280;17676;52.254;4.490;2023-10-13T08:48:07;99298.53;;;19.19;100.00
31005;BME280;17676;52.254;4.490;2023-10-13T08:50:51;99026.88;;;19.24;100.00
31005;BME280;17676;52.254;4.490;2023-10-13T08:53:20;99041.16;;;19.35;100.00
31005;BME280;17676;52.254;4.490;2023-10-13T08:56:09;99052.34;;;19.38;100.00
31005;BME280;17676;52.254;4.490;2023-10-13T08:58:48;99038.19;;;19.45;100.00
31005;BME280;17676;52.254;4.490;2023-10-13T09:04:04;99065.34;;;19.46;100.00
31005;BME280;17676;52.254;4.490;2023-10-13T09:12:15;99110.41;;;19.67;100.00
31005;BME280;17676;52.254;4.490;2023-10-13T09:14:44;99108.53;;;19.76;100.00
31005;BME280;17676;52.254;4.490;2023-10-13T09:17:26;99108.34;;;19.73;100.00
31005;BME280;17676;52.254;4.490;2023-10-13T09:20:03;99134.84;;;19.77;100.00
31005;BME280;17676;52.254;4.490;2023-10-13T09:22:55;99138.59;;;19.81;100.00
31005;BME280;17676;52.254;4.490;2023-10-13T09:25:33;99146.75;;;19.86;100.00
31005;BME280;17676;52.254;4.490;2023-10-13T09:30:45;99150.00;;;19.88;100.00
31005;BME280;17676;52.254;4.490;2023-10-13T09:33:11;99183.13;;;19.92;100.00
31005;BME280;17676;52.254;4.490;2023-10-13T09:35:54;99195.09;;;19.96;100.00
31005;BME280;17676;52.254;4.490;2023-10-13T09:38:28;99198.47;;;20.06;100.00
31005;BME280;17676;52.254;4.490;2023-10-13T09:40:54;99004.22;;;20.07;100.00
31005;BME280;17676;52.254;4.490;2023-10-13T09:43:23;98998.31;;;20.13;100.00
31005;BME280;17676;52.254;4.490;2023-10-13T09:45:50;98987.69;;;20.20;100.00
31005;BME280;17676;52.254;4.490;2023-10-13T09:48:32;98995.78;;;20.25;100.00
31005;BME280;17676;52.254;4.490;2023-10-13T09:51:02;98998.41;;;20.30;100.00
31005;BME280;17676;52.254;4.490;2023-10-13T09:53:34;98991.00;;;20.39;100.00
31005;BME280;17676;52.254;4.490;2023-10-13T09:56:16;99007.56;;;20.56;100.00
31005;BME280;17676;52.254;4.490;2023-10-13T09:59:09;99008.06;;;20.67;100.00
31005;BME280;17676;52.254;4.490;2023-10-13T10:01:42;99014.72;;;20.74;100.00
31005;BME280;17676;52.254;4.490;2023-10-13T10:04:22;99008.47;;;20.91;100.00
31005;BME280;17676;52.254;4.490;2023-10-13T10:06:59;99007.25;;;21.31;100.00
31005;BME280;17676;52.254;4.490;2023-10-13T10:09:30;99049.88;;;21.67;100.00
31005;BME280;17676;52.254;4.490;2023-10-13T10:14:58;99125.84;;;22.19;100.00
31005;BME280;17676;52.254;4.490;2023-10-13T10:17:27;99176.75;;;21.88;100.00
31005;BME280;17676;52.254;4.490;2023-10-13T10:19:55;99238.47;;;21.78;100.00
31005;BME280;17676;52.254;4.490;2023-10-13T10:22:30;99247.78;;;21.52;100.00
31005;BME280;17676;52.254;4.490;2023-10-13T10:24:59;99258.31;;;21.50;100.00
31005;BME280;17676;52.254;4.490;2023-10-13T10:27:28;99250.25;;;21.62;100.00
31005;BME280;17676;52.254;4.490;2023-10-13T10:29:55;99256.03;;;21.52;100.00
31005;BME280;17676;52.254;4.490;2023-10-13T10:32:20;99263.81;;;21.50;100.00
31005;BME280;17676;52.254;4.490;2023-10-13T10:34:47;99275.81;;;21.62;100.00
31005;BME280;17676;52.254;4.490;2023-10-13T10:37:12;99256.53;;;21.62;100.00
31005;BME280;17676;52.254;4.490;2023-10-13T10:39:39;99286.84;;;21.62;100.00
31005;BME280;17676;52.254;4.490;2023-10-13T10:42:12;99321.31;;;21.51;100.00
31005;BME280;17676;52.254;4.490;2023-10-13T10:44:43;99344.22;;;21.38;100.00
31005;BME280;17676;52.254;4.490;2023-10-13T10:47:13;99340.78;;;21.33;100.00
31005;BME280;17676;52.254;4.490;2023-10-13T10:49:58;99318.16;;;21.36;100.00
31005;BME280;17676;52.254;4.490;2023-10-13T10:52:27;99350.88;;;21.37;100.00
31005;BME280;17676;52.254;4.490;2023-10-13T10:55:00;99333.50;;;21.28;100.00
31005;BME280;17676;52.254;4.490;2023-10-13T10:57:25;99338.78;;;21.25;100.00
31005;BME280;17676;52.254;4.490;2023-10-13T10:59:54;99327.25;;;21.14;100.00
31005;BME280;17676;52.254;4.490;2023-10-13T11:02:40;99286.25;;;21.04;100.00
31005;BME280;17676;52.254;4.490;2023-10-13T11:05:07;99283.13;;;20.97;100.00
31005;BME280;17676;52.254;4.490;2023-10-13T11:07:36;99262.09;;;21.01;100.00
31005;BME280;17676;52.254;4.490;2023-10-13T11:10:13;99240.72;;;20.98;100.00
31005;BME280;17676;52.254;4.490;2023-10-13T11:12:58;99237.31;;;20.93;100.00
31005;BME280;17676;52.254;4.490;2023-10-13T11:15:46;99234.22;;;20.94;100.00
31005;BME280;17676;52.254;4.490;2023-10-13T11:18:12;99224.56;;;20.97;100.00
31005;BME280;17676;52.254;4.490;2023-10-13T11:20:47;99213.72;;;21.00;100.00
31005;BME280;17676;52.254;4.490;2023-10-13T11:23:19;99211.28;;;20.99;100.00
31005;BME280;17676;52.254;4.490;2023-10-13T11:25:59;99236.88;;;20.99;100.00
31005;BME280;17676;52.254;4.490;2023-10-13T11:28:25;99233.59;;;20.97;100.00
31005;BME280;17676;52.254;4.490;2023-10-13T11:30:58;99243.84;;;21.05;100.00
31005;BME280;17676;52.254;4.490;2023-10-13T11:33:25;99257.16;;;21.12;100.00
31005;BME280;17676;52.254;4.490;2023-10-13T11:35:58;99272.88;;;21.11;100.00
31005;BME280;17676;52.254;4.490;2023-10-13T11:38:28;99318.13;;;21.27;100.00
31005;BME280;17676;52.254;4.490;2023-10-13T11:41:08;99325.84;;;21.25;100.00
31005;BME280;17676;52.254;4.490;2023-10-13T11:43:45;99318.22;;;21.22;100.00
31005;BME280;17676;52.254;4.490;2023-10-13T11:46:21;99337.63;;;21.39;100.00
31005;BME280;17676;52.254;4.490;2023-10-13T11:49:03;99348.47;;;21.44;100.00
31005;BME280;17676;52.254;4.490;2023-10-13T11:51:41;99371.31;;;21.45;100.00
31005;BME280;17676;52.254;4.490;2023-10-13T11:54:22;99400.41;;;21.37;100.00
31005;BME280;17676;52.254;4.490;2023-10-13T11:56:49;99415.81;;;21.38;100.00
31005;BME280;17676;52.254;4.490;2023-10-13T11:59:15;99399.72;;;21.32;100.00
31005;BME280;17676;52.254;4.490;2023-10-13T12:04:30;99349.97;;;20.98;100.00
31005;BME280;17676;52.254;4.490;2023-10-13T12:07:14;99323.91;;;20.95;100.00
31005;BME280;17676;52.254;4.490;2023-10-13T12:09:43;99321.88;;;20.87;100.00
31005;BME280;17676;52.254;4.490;2023-10-13T12:12:24;99284.38;;;20.91;100.00
31005;BME280;17676;52.254;4.490;2023-10-13T12:14:51;99255.09;;;20.73;100.00
31005;BME280;17676;52.254;4.490;2023-10-13T12:17:26;99223.38;;;20.67;100.00
31005;BME280;17676;52.254;4.490;2023-10-13T12:20:00;99209.88;;;20.57;100.00
31005;BME280;17676;52.254;4.490;2023-10-13T12:22:26;99176.09;;;20.65;100.00
31005;BME280;17676;52.254;4.490;2023-10-13T12:25:06;99159.00;;;20.68;100.00
31005;BME280;17676;52.254;4.490;2023-10-13T12:27:53;99167.09;;;20.73;100.00
31005;BME280;17676;52.254;4.490;2023-10-13T12:30:38;99129.22;;;20.70;100.00
31005;BME280;17676;52.254;4.490;2023-10-13T12:33:23;99141.41;;;20.78;100.00
31005;BME280;17676;52.254;4.490;2023-10-13T12:35:55;99152.78;;;20.85;100.00
31005;BME280;17676;52.254;4.490;2023-10-13T12:38:39;99120.66;;;20.72;100.00
31005;BME280;17676;52.254;4.490;2023-10-13T12:41:18;99077.44;;;20.64;100.00
31005;BME280;17676;52.254;4.490;2023-10-13T12:44:03;99066.81;;;20.71;100.00
31005;BME280;17676;52.254;4.490;2023-10-13T12:46:47;99071.00;;;20.68;100.00
31005;BME280;17676;52.254;4.490;2023-10-13T12:49:35;99075.22;;;20.74;100.00
31005;BME280;17676;52.254;4.490;2023-10-13T12:52:13;99072.78;;;20.64;100.00
31005;BME280;17676;52.254;4.490;2023-10-13T12:54:42;99043.34;;;20.65;100.00
31005;BME280;17676;52.254;4.490;2023-10-13T12:57:14;99019.53;;;20.60;100.00
31005;BME280;17676;52.254;4.490;2023-10-13T12:59:41;99012.28;;;20.64;100.00
31005;BME280;17676;52.254;4.490;2023-10-13T13:02:07;98972.47;;;20.53;100.00
31005;BME280;17676;52.254;4.490;2023-10-13T13:04:34;98974.94;;;20.63;100.00
31005;BME280;17676;52.254;4.490;2023-10-13T13:07:02;98961.47;;;20.53;100.00
31005;BME280;17676;52.254;4.490;2023-10-13T13:09:29;98942.22;;;20.53;100.00
31005;BME280;17676;52.254;4.490;2023-10-13T13:11:56;98943.66;;;20.51;100.00
31005;BME280;17676;52.254;4.490;2023-10-13T13:14:25;98928.63;;;20.48;100.00
31005;BME280;17676;52.254;4.490;2023-10-13T13:16:58;98915.78;;;20.27;100.00
31005;BME280;17676;52.254;4.490;2023-10-13T13:19:33;98882.34;;;20.33;100.00
31005;BME280;17676;52.254;4.490;2023-10-13T13:22:05;98855.19;;;20.23;100.00
31005;BME280;17676;52.254;4.490;2023-10-13T13:24:31;98816.56;;;20.28;100.00
31005;BME280;17676;52.254;4.490;2023-10-13T13:26:57;98805.41;;;20.33;100.00
31005;BME280;17676;52.254;4.490;2023-10-13T13:29:29;98776.31;;;20.24;100.00
31005;BME280;17676;52.254;4.490;2023-10-13T13:31:55;98767.91;;;20.20;100.00
31005;BME280;17676;52.254;4.490;2023-10-13T13:34:20;98722.78;;;20.04;100.00
31005;BME280;17676;52.254;4.490;2023-10-13T13:36:47;98722.50;;;20.14;100.00
31005;BME280;17676;52.254;4.490;2023-10-13T13:39:21;98691.63;;;20.17;100.00
31005;BME280;17676;52.254;4.490;2023-10-13T13:42:03;98708.13;;;20.34;100.00
31005;BME280;17676;52.254;4.490;2023-10-13T13:44:29;98708.59;;;20.36;100.00
31005;BME280;17676;52.254;4.490;2023-10-13T13:46:56;98712.63;;;20.47;100.00
31005;BME280;17676;52.254;4.490;2023-10-13T13:49:22;98742.56;;;20.49;100.00